sensor_id;sensor_type;location;lat;lon;timestamp;P1;durP1;ratioP1;P2;durP2;ratioP2
41693;SDS011;27377;50.666;9.150;2023-02-15T00:02:21;25.70;;;17.35;;
41693;SDS011;27377;50.666;9.150;2023-02-15T00:04:47;24.85;;;17.67;;
41693;SDS011;27377;50.666;9.150;2023-02-15T00:07:16;28.08;;;17.75;;
41693;SDS011;27377;50.666;9.150;2023-02-15T00:09:47;25.45;;;17.70;;
41693;SDS011;27377;50.666;9.150;2023-02-15T00:12:13;27.17;;;18.40;;
41693;SDS011;27377;50.666;9.150;2023-02-15T00:14:39;28.13;;;18.00;;
41693;SDS011;27377;50.666;9.150;2023-02-15T00:17:05;24.83;;;17.20;;
41693;SDS011;27377;50.666;9.150;2023-02-15T00:19:30;25.13;;;17.30;;
41693;SDS011;27377;50.666;9.150;2023-02-15T00:21:56;24.73;;;17.57;;
41693;SDS011;27377;50.666;9.150;2023-02-15T00:24:21;23.80;;;17.27;;
41693;SDS011;27377;50.666;9.150;2023-02-15T00:26:47;23.73;;;17.10;;
41693;SDS011;27377;50.666;9.150;2023-02-15T00:29:13;22.75;;;17.08;;
41693;SDS011;27377;50.666;9.150;2023-02-15T00:31:40;23.30;;;16.50;;
41693;SDS011;27377;50.666;9.150;2023-02-15T00:36:39;24.33;;;16.42;;
41693;SDS011;27377;50.666;9.150;2023-02-15T00:39:05;24.90;;;17.10;;
41693;SDS011;27377;50.666;9.150;2023-02-15T00:41:31;26.65;;;16.42;;
41693;SDS011;27377;50.666;9.150;2023-02-15T00:43:57;22.48;;;15.98;;
41693;SDS011;27377;50.666;9.150;2023-02-15T00:46:23;22.05;;;15.95;;
41693;SDS011;27377;50.666;9.150;2023-02-15T00:48:49;22.55;;;16.15;;
41693;SDS011;27377;50.666;9.150;2023-02-15T00:51:15;21.87;;;15.97;;
41693;SDS011;27377;50.666;9.150;2023-02-15T00:53:42;21.08;;;15.95;;
41693;SDS011;27377;50.666;9.150;2023-02-15T00:56:09;20.48;;;15.52;;
41693;SDS011;27377;50.666;9.150;2023-02-15T00:58:35;21.70;;;15.20;;
41693;SDS011;27377;50.666;9.150;2023-02-15T01:01:04;21.00;;;15.30;;
41693;SDS011;27377;50.666;9.150;2023-02-15T01:03:32;21.03;;;15.67;;
41693;SDS011;27377;50.666;9.150;2023-02-15T01:05:58;20.95;;;15.30;;
41693;SDS011;27377;50.666;9.150;2023-02-15T01:08:24;20.33;;;14.90;;
41693;SDS011;27377;50.666;9.150;2023-02-15T01:10:50;19.17;;;14.38;;
41693;SDS011;27377;50.666;9.150;2023-02-15T01:13:16;19.80;;;15.03;;
41693;SDS011;27377;50.666;9.150;2023-02-15T01:15:42;18.95;;;14.55;;
41693;SDS011;27377;50.666;9.150;2023-02-15T01:18:09;21.35;;;15.57;;
41693;SDS011;27377;50.666;9.150;2023-02-15T01:20:36;18.37;;;14.43;;
41693;SDS011;27377;50.666;9.150;2023-02-15T01:23:04;22.67;;;14.63;;
41693;SDS011;27377;50.666;9.150;2023-02-15T01:25:32;19.63;;;14.40;;
41693;SDS011;27377;50.666;9.150;2023-02-15T01:27:59;18.67;;;13.93;;
41693;SDS011;27377;50.666;9.150;2023-02-15T01:30:24;21.27;;;15.48;;
41693;SDS011;27377;50.666;9.150;2023-02-15T01:32:50;19.25;;;14.88;;
41693;SDS011;27377;50.666;9.150;2023-02-15T01:35:16;18.77;;;14.13;;
41693;SDS011;27377;50.666;9.150;2023-02-15T01:37:41;19.07;;;14.10;;
41693;SDS011;27377;50.666;9.150;2023-02-15T01:40:08;20.00;;;14.53;;
41693;SDS011;27377;50.666;9.150;2023-02-15T01:42:39;19.33;;;14.65;;
41693;SDS011;27377;50.666;9.150;2023-02-15T01:45:14;19.00;;;14.80;;
41693;SDS011;27377;50.666;9.150;2023-02-15T01:47:48;17.27;;;13.63;;
41693;SDS011;27377;50.666;9.150;2023-02-15T01:50:16;18.43;;;14.17;;
41693;SDS011;27377;50.666;9.150;2023-02-15T01:52:47;19.25;;;13.82;;
41693;SDS011;27377;50.666;9.150;2023-02-15T01:55:20;18.35;;;14.00;;
41693;SDS011;27377;50.666;9.150;2023-02-15T01:57:48;21.25;;;14.30;;
41693;SDS011;27377;50.666;9.150;2023-02-15T02:00:15;19.27;;;13.77;;
41693;SDS011;27377;50.666;9.150;2023-02-15T02:02:42;18.48;;;14.07;;
41693;SDS011;27377;50.666;9.150;2023-02-15T02:05:09;22.15;;;13.80;;
41693;SDS011;27377;50.666;9.150;2023-02-15T02:07:39;18.88;;;14.05;;
41693;SDS011;27377;50.666;9.150;2023-02-15T02:10:09;17.15;;;13.35;;
41693;SDS011;27377;50.666;9.150;2023-02-15T02:12:38;18.85;;;13.38;;
41693;SDS011;27377;50.666;9.150;2023-02-15T02:15:07;21.27;;;14.25;;
41693;SDS011;27377;50.666;9.150;2023-02-15T02:17:49;21.20;;;13.50;;
41693;SDS011;27377;50.666;9.150;2023-02-15T02:31:31;18.85;;;14.35;;
41693;SDS011;27377;50.666;9.150;2023-02-15T02:34:27;20.48;;;14.05;;
41693;SDS011;27377;50.666;9.150;2023-02-15T02:37:19;17.38;;;13.43;;
41693;SDS011;27377;50.666;9.150;2023-02-15T02:42:39;17.90;;;12.63;;
41693;SDS011;27377;50.666;9.150;2023-02-15T02:47:56;15.73;;;10.88;;
41693;SDS011;27377;50.666;9.150;2023-02-15T02:50:28;15.40;;;10.75;;
41693;SDS011;27377;50.666;9.150;2023-02-15T02:52:55;13.95;;;10.60;;
41693;SDS011;27377;50.666;9.150;2023-02-15T02:55:23;15.27;;;11.47;;
41693;SDS011;27377;50.666;9.150;2023-02-15T03:00:45;17.37;;;11.00;;
41693;SDS011;27377;50.666;9.150;2023-02-15T03:03:20;17.08;;;11.27;;
41693;SDS011;27377;50.666;9.150;2023-02-15T03:05:55;16.83;;;10.90;;
41693;SDS011;27377;50.666;9.150;2023-02-15T03:08:26;21.35;;;11.32;;
41693;SDS011;27377;50.666;9.150;2023-02-15T03:10:59;17.25;;;11.15;;
41693;SDS011;27377;50.666;9.150;2023-02-15T03:13:26;18.05;;;10.75;;
41693;SDS011;27377;50.666;9.150;2023-02-15T03:15:52;18.55;;;11.27;;
41693;SDS011;27377;50.666;9.150;2023-02-15T03:18:39;17.70;;;11.93;;
41693;SDS011;27377;50.666;9.150;2023-02-15T03:21:17;18.33;;;11.82;;
41693;SDS011;27377;50.666;9.150;2023-02-15T03:23:48;16.00;;;11.75;;
41693;SDS011;27377;50.666;9.150;2023-02-15T03:26:19;17.33;;;11.70;;
41693;SDS011;27377;50.666;9.150;2023-02-15T03:28:46;18.33;;;12.17;;
41693;SDS011;27377;50.666;9.150;2023-02-15T03:31:16;19.52;;;12.07;;
41693;SDS011;27377;50.666;9.150;2023-02-15T03:33:52;18.33;;;12.10;;
41693;SDS011;27377;50.666;9.150;2023-02-15T03:36:22;19.25;;;12.32;;
41693;SDS011;27377;50.666;9.150;2023-02-15T03:39:00;20.40;;;12.52;;
41693;SDS011;27377;50.666;9.150;2023-02-15T03:41:44;17.88;;;12.02;;
41693;SDS011;27377;50.666;9.150;2023-02-15T03:44:15;17.85;;;12.55;;
41693;SDS011;27377;50.666;9.150;2023-02-15T03:46:51;26.30;;;12.73;;
41693;SDS011;27377;50.666;9.150;2023-02-15T03:52:21;19.63;;;13.00;;
41693;SDS011;27377;50.666;9.150;2023-02-15T03:54:49;28.17;;;12.65;;
41693;SDS011;27377;50.666;9.150;2023-02-15T03:57:20;18.45;;;12.38;;
41693;SDS011;27377;50.666;9.150;2023-02-15T04:00:26;21.30;;;11.93;;
41693;SDS011;27377;50.666;9.150;2023-02-15T04:03:11;24.77;;;12.82;;
41693;SDS011;27377;50.666;9.150;2023-02-15T04:05:47;18.65;;;12.93;;
41693;SDS011;27377;50.666;9.150;2023-02-15T04:08:13;20.00;;;12.80;;
41693;SDS011;27377;50.666;9.150;2023-02-15T04:10:39;18.25;;;13.02;;
41693;SDS011;27377;50.666;9.150;2023-02-15T04:13:23;17.75;;;12.95;;
41693;SDS011;27377;50.666;9.150;2023-02-15T04:15:54;15.98;;;12.18;;
41693;SDS011;27377;50.666;9.150;2023-02-15T04:18:29;15.93;;;11.88;;
41693;SDS011;27377;50.666;9.150;2023-02-15T04:21:15;19.13;;;12.63;;
41693;SDS011;27377;50.666;9.150;2023-02-15T04:23:59;15.88;;;11.70;;
41693;SDS011;27377;50.666;9.150;2023-02-15T04:26:43;15.87;;;12.10;;
41693;SDS011;27377;50.666;9.150;2023-02-15T04:29:09;16.25;;;12.02;;
41693;SDS011;27377;50.666;9.150;2023-02-15T04:31:34;16.15;;;12.02;;
41693;SDS011;27377;50.666;9.150;2023-02-15T04:34:00;16.08;;;11.75;;
41693;SDS011;27377;50.666;9.150;2023-02-15T04:36:26;15.90;;;11.90;;
41693;SDS011;27377;50.666;9.150;2023-02-15T04:38:51;16.03;;;12.10;;
41693;SDS011;27377;50.666;9.150;2023-02-15T04:41:17;16.30;;;11.80;;
41693;SDS011;27377;50.666;9.150;2023-02-15T04:43:42;15.43;;;11.10;;
41693;SDS011;27377;50.666;9.150;2023-02-15T04:46:08;19.77;;;13.07;;
41693;SDS011;27377;50.666;9.150;2023-02-15T04:48:33;24.03;;;13.57;;
41693;SDS011;27377;50.666;9.150;2023-02-15T04:50:59;19.97;;;13.30;;
41693;SDS011;27377;50.666;9.150;2023-02-15T04:53:24;23.30;;;14.77;;
41693;SDS011;27377;50.666;9.150;2023-02-15T04:55:50;25.53;;;15.50;;
41693;SDS011;27377;50.666;9.150;2023-02-15T04:58:15;22.40;;;15.07;;
41693;SDS011;27377;50.666;9.150;2023-02-15T05:00:41;23.57;;;15.43;;
41693;SDS011;27377;50.666;9.150;2023-02-15T05:03:06;23.80;;;15.38;;
41693;SDS011;27377;50.666;9.150;2023-02-15T05:05:32;21.55;;;14.80;;
41693;SDS011;27377;50.666;9.150;2023-02-15T05:07:57;22.23;;;14.93;;
41693;SDS011;27377;50.666;9.150;2023-02-15T05:10:23;26.42;;;15.02;;
41693;SDS011;27377;50.666;9.150;2023-02-15T05:12:48;22.33;;;15.45;;
41693;SDS011;27377;50.666;9.150;2023-02-15T05:15:14;23.03;;;14.50;;
41693;SDS011;27377;50.666;9.150;2023-02-15T05:17:39;23.20;;;14.83;;
41693;SDS011;27377;50.666;9.150;2023-02-15T05:20:05;23.10;;;15.17;;
41693;SDS011;27377;50.666;9.150;2023-02-15T05:22:31;24.00;;;15.23;;
41693;SDS011;27377;50.666;9.150;2023-02-15T05:24:57;21.88;;;14.52;;
41693;SDS011;27377;50.666;9.150;2023-02-15T05:27:41;24.85;;;14.35;;
41693;SDS011;27377;50.666;9.150;2023-02-15T05:30:25;21.47;;;14.40;;
41693;SDS011;27377;50.666;9.150;2023-02-15T05:32:51;20.93;;;14.20;;
41693;SDS011;27377;50.666;9.150;2023-02-15T05:35:16;20.02;;;13.90;;
41693;SDS011;27377;50.666;9.150;2023-02-15T05:37:42;21.38;;;14.27;;
41693;SDS011;27377;50.666;9.150;2023-02-15T05:40:08;19.17;;;13.10;;
41693;SDS011;27377;50.666;9.150;2023-02-15T05:42:34;20.05;;;13.73;;
41693;SDS011;27377;50.666;9.150;2023-02-15T05:44:59;21.23;;;13.90;;
41693;SDS011;27377;50.666;9.150;2023-02-15T05:47:25;19.90;;;13.87;;
41693;SDS011;27377;50.666;9.150;2023-02-15T05:49:51;20.80;;;13.73;;
41693;SDS011;27377;50.666;9.150;2023-02-15T05:52:16;23.60;;;14.97;;
41693;SDS011;27377;50.666;9.150;2023-02-15T05:54:42;23.67;;;14.87;;
41693;SDS011;27377;50.666;9.150;2023-02-15T05:57:07;20.80;;;14.27;;
41693;SDS011;27377;50.666;9.150;2023-02-15T05:59:33;20.83;;;14.00;;
41693;SDS011;27377;50.666;9.150;2023-02-15T06:01:59;20.23;;;13.95;;
41693;SDS011;27377;50.666;9.150;2023-02-15T06:04:25;22.23;;;14.43;;
41693;SDS011;27377;50.666;9.150;2023-02-15T06:06:50;22.00;;;14.35;;
41693;SDS011;27377;50.666;9.150;2023-02-15T06:09:16;23.08;;;14.48;;
41693;SDS011;27377;50.666;9.150;2023-02-15T06:11:43;22.90;;;15.00;;
41693;SDS011;27377;50.666;9.150;2023-02-15T06:14:10;22.42;;;14.77;;
41693;SDS011;27377;50.666;9.150;2023-02-15T06:16:35;23.83;;;15.40;;
41693;SDS011;27377;50.666;9.150;2023-02-15T06:19:01;23.63;;;15.83;;
41693;SDS011;27377;50.666;9.150;2023-02-15T06:21:28;24.42;;;16.60;;
41693;SDS011;27377;50.666;9.150;2023-02-15T06:23:57;25.58;;;17.45;;
41693;SDS011;27377;50.666;9.150;2023-02-15T06:26:22;23.57;;;15.93;;
41693;SDS011;27377;50.666;9.150;2023-02-15T06:28:48;23.80;;;16.07;;
41693;SDS011;27377;50.666;9.150;2023-02-15T06:31:14;23.40;;;15.47;;
41693;SDS011;27377;50.666;9.150;2023-02-15T06:33:40;25.38;;;16.25;;
41693;SDS011;27377;50.666;9.150;2023-02-15T06:36:05;24.87;;;16.40;;
41693;SDS011;27377;50.666;9.150;2023-02-15T06:38:31;26.25;;;17.42;;
41693;SDS011;27377;50.666;9.150;2023-02-15T06:40:57;25.40;;;17.17;;
41693;SDS011;27377;50.666;9.150;2023-02-15T06:43:22;25.30;;;17.03;;
41693;SDS011;27377;50.666;9.150;2023-02-15T06:45:48;25.80;;;16.13;;
41693;SDS011;27377;50.666;9.150;2023-02-15T06:48:14;24.83;;;16.17;;
41693;SDS011;27377;50.666;9.150;2023-02-15T06:50:45;24.13;;;15.85;;
41693;SDS011;27377;50.666;9.150;2023-02-15T06:53:10;23.75;;;16.38;;
41693;SDS011;27377;50.666;9.150;2023-02-15T06:55:37;25.48;;;15.88;;
41693;SDS011;27377;50.666;9.150;2023-02-15T06:58:02;25.38;;;16.77;;
41693;SDS011;27377;50.666;9.150;2023-02-15T07:00:28;22.47;;;15.73;;
41693;SDS011;27377;50.666;9.150;2023-02-15T07:02:54;22.83;;;15.40;;
41693;SDS011;27377;50.666;9.150;2023-02-15T07:05:20;22.08;;;14.43;;
41693;SDS011;27377;50.666;9.150;2023-02-15T07:07:47;21.23;;;14.50;;
41693;SDS011;27377;50.666;9.150;2023-02-15T07:10:12;20.43;;;14.73;;
41693;SDS011;27377;50.666;9.150;2023-02-15T07:12:38;20.55;;;14.27;;
41693;SDS011;27377;50.666;9.150;2023-02-15T07:15:08;20.42;;;14.30;;
41693;SDS011;27377;50.666;9.150;2023-02-15T07:17:34;21.08;;;14.77;;
41693;SDS011;27377;50.666;9.150;2023-02-15T07:20:00;20.90;;;14.65;;
41693;SDS011;27377;50.666;9.150;2023-02-15T07:22:26;21.52;;;14.52;;
41693;SDS011;27377;50.666;9.150;2023-02-15T07:24:52;21.02;;;14.70;;
41693;SDS011;27377;50.666;9.150;2023-02-15T07:27:19;22.98;;;16.20;;
41693;SDS011;27377;50.666;9.150;2023-02-15T07:29:46;22.40;;;15.95;;
41693;SDS011;27377;50.666;9.150;2023-02-15T07:32:11;22.87;;;15.70;;
41693;SDS011;27377;50.666;9.150;2023-02-15T07:34:38;22.58;;;15.75;;
41693;SDS011;27377;50.666;9.150;2023-02-15T07:37:04;25.70;;;16.90;;
41693;SDS011;27377;50.666;9.150;2023-02-15T07:39:30;25.63;;;17.20;;
41693;SDS011;27377;50.666;9.150;2023-02-15T07:41:56;28.15;;;19.63;;
41693;SDS011;27377;50.666;9.150;2023-02-15T07:44:21;26.85;;;18.17;;
41693;SDS011;27377;50.666;9.150;2023-02-15T07:46:47;26.95;;;18.25;;
41693;SDS011;27377;50.666;9.150;2023-02-15T07:49:12;27.13;;;18.50;;
41693;SDS011;27377;50.666;9.150;2023-02-15T07:51:39;30.30;;;18.77;;
41693;SDS011;27377;50.666;9.150;2023-02-15T07:54:06;28.77;;;18.70;;
41693;SDS011;27377;50.666;9.150;2023-02-15T07:56:31;28.48;;;18.65;;
41693;SDS011;27377;50.666;9.150;2023-02-15T07:58:57;27.17;;;17.92;;
41693;SDS011;27377;50.666;9.150;2023-02-15T08:01:35;30.23;;;19.02;;
41693;SDS011;27377;50.666;9.150;2023-02-15T08:04:02;27.87;;;18.23;;
41693;SDS011;27377;50.666;9.150;2023-02-15T08:06:30;27.67;;;18.33;;
41693;SDS011;27377;50.666;9.150;2023-02-15T08:08:57;26.85;;;17.42;;
41693;SDS011;27377;50.666;9.150;2023-02-15T08:11:24;28.83;;;17.97;;
41693;SDS011;27377;50.666;9.150;2023-02-15T08:16:37;25.30;;;17.35;;
41693;SDS011;27377;50.666;9.150;2023-02-15T08:19:06;28.10;;;18.47;;
41693;SDS011;27377;50.666;9.150;2023-02-15T08:21:37;28.27;;;17.98;;
41693;SDS011;27377;50.666;9.150;2023-02-15T08:24:05;27.35;;;18.02;;
41693;SDS011;27377;50.666;9.150;2023-02-15T08:26:33;25.77;;;17.67;;
41693;SDS011;27377;50.666;9.150;2023-02-15T08:28:59;27.47;;;18.07;;
41693;SDS011;27377;50.666;9.150;2023-02-15T08:31:25;27.25;;;17.67;;
41693;SDS011;27377;50.666;9.150;2023-02-15T08:33:53;27.97;;;18.23;;
41693;SDS011;27377;50.666;9.150;2023-02-15T08:36:21;26.57;;;17.77;;
41693;SDS011;27377;50.666;9.150;2023-02-15T08:38:53;27.73;;;18.33;;
41693;SDS011;27377;50.666;9.150;2023-02-15T08:41:20;28.70;;;18.58;;
41693;SDS011;27377;50.666;9.150;2023-02-15T08:43:48;26.45;;;17.77;;
41693;SDS011;27377;50.666;9.150;2023-02-15T08:46:17;27.48;;;18.10;;
41693;SDS011;27377;50.666;9.150;2023-02-15T08:48:43;27.50;;;17.95;;
41693;SDS011;27377;50.666;9.150;2023-02-15T08:51:14;27.17;;;18.10;;
41693;SDS011;27377;50.666;9.150;2023-02-15T08:53:46;27.53;;;18.33;;
41693;SDS011;27377;50.666;9.150;2023-02-15T08:56:16;26.65;;;17.65;;
41693;SDS011;27377;50.666;9.150;2023-02-15T08:58:43;27.42;;;18.23;;
41693;SDS011;27377;50.666;9.150;2023-02-15T09:01:16;27.92;;;18.52;;
41693;SDS011;27377;50.666;9.150;2023-02-15T09:03:45;29.90;;;19.15;;
41693;SDS011;27377;50.666;9.150;2023-02-15T09:06:12;29.67;;;19.00;;
41693;SDS011;27377;50.666;9.150;2023-02-15T09:08:38;31.65;;;20.08;;
41693;SDS011;27377;50.666;9.150;2023-02-15T09:11:05;29.88;;;19.30;;
41693;SDS011;27377;50.666;9.150;2023-02-15T09:13:34;29.98;;;19.65;;
41693;SDS011;27377;50.666;9.150;2023-02-15T09:16:03;30.13;;;19.23;;
41693;SDS011;27377;50.666;9.150;2023-02-15T09:18:31;31.60;;;19.77;;
41693;SDS011;27377;50.666;9.150;2023-02-15T09:21:03;30.25;;;19.60;;
41693;SDS011;27377;50.666;9.150;2023-02-15T09:23:30;29.73;;;20.08;;
41693;SDS011;27377;50.666;9.150;2023-02-15T09:25:56;29.55;;;19.40;;
41693;SDS011;27377;50.666;9.150;2023-02-15T09:28:21;30.93;;;19.83;;
41693;SDS011;27377;50.666;9.150;2023-02-15T09:30:47;30.90;;;19.23;;
41693;SDS011;27377;50.666;9.150;2023-02-15T09:33:12;30.83;;;19.73;;
41693;SDS011;27377;50.666;9.150;2023-02-15T09:35:38;29.43;;;19.77;;
41693;SDS011;27377;50.666;9.150;2023-02-15T09:38:03;31.93;;;20.30;;
41693;SDS011;27377;50.666;9.150;2023-02-15T09:40:30;29.77;;;19.87;;
41693;SDS011;27377;50.666;9.150;2023-02-15T09:46:03;32.67;;;21.17;;
41693;SDS011;27377;50.666;9.150;2023-02-15T09:48:44;33.38;;;20.35;;
41693;SDS011;27377;50.666;9.150;2023-02-15T09:56:42;33.03;;;20.23;;
41693;SDS011;27377;50.666;9.150;2023-02-15T10:04:41;32.43;;;20.53;;
41693;SDS011;27377;50.666;9.150;2023-02-15T10:07:30;32.72;;;20.90;;
41693;SDS011;27377;50.666;9.150;2023-02-15T10:12:56;31.92;;;20.95;;
41693;SDS011;27377;50.666;9.150;2023-02-15T10:20:59;32.67;;;21.08;;
41693;SDS011;27377;50.666;9.150;2023-02-15T10:23:58;32.88;;;21.00;;
41693;SDS011;27377;50.666;9.150;2023-02-15T10:26:31;33.13;;;21.23;;
41693;SDS011;27377;50.666;9.150;2023-02-15T10:29:09;32.05;;;20.55;;
41693;SDS011;27377;50.666;9.150;2023-02-15T10:31:50;34.47;;;21.52;;
41693;SDS011;27377;50.666;9.150;2023-02-15T10:42:57;31.63;;;21.15;;
41693;SDS011;27377;50.666;9.150;2023-02-15T10:53:58;31.50;;;20.45;;
41693;SDS011;27377;50.666;9.150;2023-02-15T10:56:47;32.72;;;21.02;;
41693;SDS011;27377;50.666;9.150;2023-02-15T10:59:34;33.83;;;20.87;;
41693;SDS011;27377;50.666;9.150;2023-02-15T11:04:48;35.37;;;22.00;;
41693;SDS011;27377;50.666;9.150;2023-02-15T11:07:48;32.53;;;21.17;;
41693;SDS011;27377;50.666;9.150;2023-02-15T11:10:28;35.17;;;22.60;;
41693;SDS011;27377;50.666;9.150;2023-02-15T11:13:11;36.60;;;22.77;;
41693;SDS011;27377;50.666;9.150;2023-02-15T11:15:46;35.20;;;22.73;;
41693;SDS011;27377;50.666;9.150;2023-02-15T11:21:05;32.10;;;21.45;;
41693;SDS011;27377;50.666;9.150;2023-02-15T11:23:37;34.50;;;22.23;;
41693;SDS011;27377;50.666;9.150;2023-02-15T11:26:11;35.75;;;22.55;;
41693;SDS011;27377;50.666;9.150;2023-02-15T11:29:01;33.47;;;22.08;;
41693;SDS011;27377;50.666;9.150;2023-02-15T11:31:44;34.57;;;22.43;;
41693;SDS011;27377;50.666;9.150;2023-02-15T11:34:16;36.97;;;23.20;;
41693;SDS011;27377;50.666;9.150;2023-02-15T11:37:10;36.03;;;22.93;;
41693;SDS011;27377;50.666;9.150;2023-02-15T11:39:38;37.57;;;23.53;;
41693;SDS011;27377;50.666;9.150;2023-02-15T11:42:06;36.50;;;22.85;;
41693;SDS011;27377;50.666;9.150;2023-02-15T11:44:42;35.40;;;22.00;;
41693;SDS011;27377;50.666;9.150;2023-02-15T11:47:25;36.05;;;23.15;;
41693;SDS011;27377;50.666;9.150;2023-02-15T11:49:50;38.27;;;24.10;;
41693;SDS011;27377;50.666;9.150;2023-02-15T11:52:16;36.50;;;23.07;;
41693;SDS011;27377;50.666;9.150;2023-02-15T11:54:44;35.72;;;22.52;;
41693;SDS011;27377;50.666;9.150;2023-02-15T12:00:01;35.40;;;22.75;;
41693;SDS011;27377;50.666;9.150;2023-02-15T12:02:29;36.92;;;23.27;;
41693;SDS011;27377;50.666;9.150;2023-02-15T12:05:03;35.20;;;22.97;;
41693;SDS011;27377;50.666;9.150;2023-02-15T12:07:36;34.67;;;22.40;;
41693;SDS011;27377;50.666;9.150;2023-02-15T12:15:43;36.05;;;23.05;;
41693;SDS011;27377;50.666;9.150;2023-02-15T12:21:05;36.10;;;23.48;;
41693;SDS011;27377;50.666;9.150;2023-02-15T12:23:33;35.88;;;23.15;;
41693;SDS011;27377;50.666;9.150;2023-02-15T12:26:06;35.45;;;23.42;;
41693;SDS011;27377;50.666;9.150;2023-02-15T12:30:58;38.42;;;23.95;;
41693;SDS011;27377;50.666;9.150;2023-02-15T12:33:27;38.17;;;23.75;;
41693;SDS011;27377;50.666;9.150;2023-02-15T12:36:01;38.88;;;24.00;;
41693;SDS011;27377;50.666;9.150;2023-02-15T12:38:42;36.85;;;22.77;;
41693;SDS011;27377;50.666;9.150;2023-02-15T12:41:24;36.88;;;23.75;;
41693;SDS011;27377;50.666;9.150;2023-02-15T12:46:40;37.72;;;24.50;;
41693;SDS011;27377;50.666;9.150;2023-02-15T12:49:18;37.65;;;24.00;;
41693;SDS011;27377;50.666;9.150;2023-02-15T12:51:48;37.75;;;24.17;;
41693;SDS011;27377;50.666;9.150;2023-02-15T12:56:53;38.28;;;25.30;;
41693;SDS011;27377;50.666;9.150;2023-02-15T12:59:19;38.58;;;24.23;;
41693;SDS011;27377;50.666;9.150;2023-02-15T13:01:45;38.67;;;24.13;;
41693;SDS011;27377;50.666;9.150;2023-02-15T13:04:22;38.35;;;24.40;;
41693;SDS011;27377;50.666;9.150;2023-02-15T13:06:53;37.65;;;23.88;;
41693;SDS011;27377;50.666;9.150;2023-02-15T13:11:56;34.13;;;22.77;;
41693;SDS011;27377;50.666;9.150;2023-02-15T13:14:31;35.43;;;22.47;;
41693;SDS011;27377;50.666;9.150;2023-02-15T13:16:58;35.92;;;23.25;;
41693;SDS011;27377;50.666;9.150;2023-02-15T13:22:14;36.50;;;24.40;;
41693;SDS011;27377;50.666;9.150;2023-02-15T13:24:47;37.15;;;24.10;;
41693;SDS011;27377;50.666;9.150;2023-02-15T13:27:18;37.47;;;24.25;;
41693;SDS011;27377;50.666;9.150;2023-02-15T13:29:52;36.88;;;23.50;;
41693;SDS011;27377;50.666;9.150;2023-02-15T13:32:28;38.63;;;24.25;;
41693;SDS011;27377;50.666;9.150;2023-02-15T13:35:03;35.92;;;23.88;;
41693;SDS011;27377;50.666;9.150;2023-02-15T13:40:19;35.85;;;23.75;;
41693;SDS011;27377;50.666;9.150;2023-02-15T13:43:01;37.50;;;24.15;;
41693;SDS011;27377;50.666;9.150;2023-02-15T13:54:41;35.33;;;23.85;;
41693;SDS011;27377;50.666;9.150;2023-02-15T14:09:10;39.53;;;24.92;;
41693;SDS011;27377;50.666;9.150;2023-02-15T14:12:19;39.83;;;25.88;;
41693;SDS011;27377;50.666;9.150;2023-02-15T14:17:42;39.63;;;25.40;;
41693;SDS011;27377;50.666;9.150;2023-02-15T14:20:21;40.65;;;25.30;;
41693;SDS011;27377;50.666;9.150;2023-02-15T14:23:14;36.72;;;24.15;;
41693;SDS011;27377;50.666;9.150;2023-02-15T14:26:09;39.33;;;25.42;;
41693;SDS011;27377;50.666;9.150;2023-02-15T14:31:29;38.10;;;25.58;;
41693;SDS011;27377;50.666;9.150;2023-02-15T14:33:59;38.90;;;25.67;;
41693;SDS011;27377;50.666;9.150;2023-02-15T14:36:25;39.58;;;25.92;;
41693;SDS011;27377;50.666;9.150;2023-02-15T14:42:20;35.40;;;24.50;;
41693;SDS011;27377;50.666;9.150;2023-02-15T14:45:05;38.58;;;25.25;;
41693;SDS011;27377;50.666;9.150;2023-02-15T14:47:55;36.50;;;24.20;;
41693;SDS011;27377;50.666;9.150;2023-02-15T14:50:40;39.20;;;25.67;;
41693;SDS011;27377;50.666;9.150;2023-02-15T15:01:14;36.17;;;24.00;;
41693;SDS011;27377;50.666;9.150;2023-02-15T15:03:47;35.40;;;23.95;;
41693;SDS011;27377;50.666;9.150;2023-02-15T15:06:25;34.85;;;23.33;;
41693;SDS011;27377;50.666;9.150;2023-02-15T15:09:00;35.42;;;23.77;;
41693;SDS011;27377;50.666;9.150;2023-02-15T15:11:51;35.95;;;24.15;;
41693;SDS011;27377;50.666;9.150;2023-02-15T15:17:00;33.70;;;22.95;;
41693;SDS011;27377;50.666;9.150;2023-02-15T15:22:20;33.22;;;22.60;;
41693;SDS011;27377;50.666;9.150;2023-02-15T15:25:03;33.08;;;23.13;;
41693;SDS011;27377;50.666;9.150;2023-02-15T15:49:49;32.30;;;21.50;;
41693;SDS011;27377;50.666;9.150;2023-02-15T15:52:20;34.75;;;22.17;;
41693;SDS011;27377;50.666;9.150;2023-02-15T15:54:48;32.90;;;22.23;;
41693;SDS011;27377;50.666;9.150;2023-02-15T15:57:32;35.13;;;22.45;;
41693;SDS011;27377;50.666;9.150;2023-02-15T16:00:03;37.00;;;22.83;;
41693;SDS011;27377;50.666;9.150;2023-02-15T16:02:52;33.50;;;22.10;;
41693;SDS011;27377;50.666;9.150;2023-02-15T16:05:18;32.97;;;22.40;;
41693;SDS011;27377;50.666;9.150;2023-02-15T16:07:44;33.60;;;22.45;;
41693;SDS011;27377;50.666;9.150;2023-02-15T16:10:43;35.30;;;23.43;;
41693;SDS011;27377;50.666;9.150;2023-02-15T16:13:04;35.25;;;22.42;;
41693;SDS011;27377;50.666;9.150;2023-02-15T16:15:35;34.22;;;22.73;;
41693;SDS011;27377;50.666;9.150;2023-02-15T16:18:15;34.95;;;22.40;;
41693;SDS011;27377;50.666;9.150;2023-02-15T16:20:42;35.03;;;22.75;;
41693;SDS011;27377;50.666;9.150;2023-02-15T16:28:58;33.83;;;22.52;;
41693;SDS011;27377;50.666;9.150;2023-02-15T16:31:23;32.23;;;22.20;;
41693;SDS011;27377;50.666;9.150;2023-02-15T16:33:51;35.73;;;23.17;;
41693;SDS011;27377;50.666;9.150;2023-02-15T16:36:25;34.85;;;22.95;;
41693;SDS011;27377;50.666;9.150;2023-02-15T16:41:25;33.65;;;22.95;;
41693;SDS011;27377;50.666;9.150;2023-02-15T16:43:55;38.15;;;24.38;;
41693;SDS011;27377;50.666;9.150;2023-02-15T16:49:00;41.80;;;26.95;;
41693;SDS011;27377;50.666;9.150;2023-02-15T16:51:30;44.22;;;28.77;;
41693;SDS011;27377;50.666;9.150;2023-02-15T16:54:00;47.72;;;29.95;;
41693;SDS011;27377;50.666;9.150;2023-02-15T16:56:47;46.22;;;30.38;;
41693;SDS011;27377;50.666;9.150;2023-02-15T17:02:10;49.50;;;31.58;;
41693;SDS011;27377;50.666;9.150;2023-02-15T17:04:41;50.75;;;31.25;;
41693;SDS011;27377;50.666;9.150;2023-02-15T17:07:19;50.60;;;31.73;;
41693;SDS011;27377;50.666;9.150;2023-02-15T17:09:49;50.92;;;32.78;;
41693;SDS011;27377;50.666;9.150;2023-02-15T17:15:36;52.50;;;32.37;;
41693;SDS011;27377;50.666;9.150;2023-02-15T17:18:04;53.35;;;32.70;;
41693;SDS011;27377;50.666;9.150;2023-02-15T17:20:35;53.63;;;33.20;;
41693;SDS011;27377;50.666;9.150;2023-02-15T17:23:03;54.43;;;33.40;;
41693;SDS011;27377;50.666;9.150;2023-02-15T17:25:35;55.67;;;33.30;;
41693;SDS011;27377;50.666;9.150;2023-02-15T17:28:03;53.05;;;33.60;;
41693;SDS011;27377;50.666;9.150;2023-02-15T17:30:31;52.28;;;33.63;;
41693;SDS011;27377;50.666;9.150;2023-02-15T17:33:00;50.88;;;33.10;;
41693;SDS011;27377;50.666;9.150;2023-02-15T17:35:28;54.03;;;33.22;;
41693;SDS011;27377;50.666;9.150;2023-02-15T17:38:03;51.17;;;33.60;;
41693;SDS011;27377;50.666;9.150;2023-02-15T17:40:41;51.50;;;32.73;;
41693;SDS011;27377;50.666;9.150;2023-02-15T17:43:07;51.67;;;32.63;;
41693;SDS011;27377;50.666;9.150;2023-02-15T17:45:33;49.57;;;33.07;;